Time;durP1;ratioP1;P1;durP2;ratioP2;P2;SDS_P1;SDS_P2;PMS_P1;PMS_P2;Temp;Humidity;BMP_temperature;BMP_pressure;BME280_temperature;BME280_humidity;BME280_pressure;Samples;Min_cycle;Max_cycle;Signal;HPM_P1;HPM_P2
2023/06/26 04:22:33;;;;;;;6.05;3.88;;;;;;;15.65;100.00;100122.47;5109873;27;20427;-62
2023/06/26 04:25:02;;;;;;;5.28;3.63;;;;;;;15.68;100.00;100122.03;5109924;28;20643;-63
2023/06/26 04:27:28;;;;;;;4.53;3.42;;;;;;;15.71;100.00;100124.28;5109776;27;20446;-63
2023/06/26 04:29:53;;;;;;;4.85;3.13;;;;;;;15.71;100.00;100125.13;5109423;28;20035;-63
2023/06/26 04:32:19;;;;;;;9.93;3.63;;;;;;;15.79;100.00;100126.78;5109766;28;20571;-63
2023/06/26 04:34:44;;;;;;;6.15;3.13;;;;;;;15.93;100.00;100125.69;5109756;28;20044;-61
2023/06/26 04:37:10;;;;;;;5.20;3.25;;;;;;;15.98;100.00;100125.06;5109093;28;20043;-63
2023/06/26 04:39:38;;;;;;;4.20;3.70;;;;;;;16.04;100.00;100116.16;5109387;28;20050;-63
2023/06/26 04:42:06;;;;;;;5.55;3.53;;;;;;;16.12;100.00;100109.72;5109597;28;20480;-64
2023/06/26 04:44:31;;;;;;;5.35;3.95;;;;;;;16.20;100.00;100109.47;5109426;28;20032;-63
2023/06/26 04:46:56;;;;;;;6.70;4.95;;;;;;;16.29;100.00;100108.19;5109400;28;20036;-62
2023/06/26 04:49:22;;;;;;;6.57;4.40;;;;;;;16.38;100.00;100115.00;5107755;28;20492;-61
2023/06/26 04:51:48;;;;;;;7.72;4.47;;;;;;;16.49;100.00;100122.34;5109381;28;20511;-55
2023/06/26 04:54:13;;;;;;;7.95;5.00;;;;;;;16.63;100.00;100117.75;5109258;28;20039;-57
2023/06/26 04:56:39;;;;;;;5.38;3.80;;;;;;;16.73;100.00;100114.63;5109198;28;20028;-58
2023/06/26 04:59:05;;;;;;;7.22;4.20;;;;;;;16.88;100.00;100114.31;5108835;28;20093;-55
2023/06/26 05:01:32;;;;;;;7.50;5.22;;;;;;;17.00;100.00;100108.00;5109214;28;20503;-56
2023/06/26 05:03:57;;;;;;;5.63;4.25;;;;;;;17.09;100.00;100114.78;5109154;28;20032;-57
2023/06/26 05:06:23;;;;;;;5.78;3.67;;;;;;;17.26;97.71;100122.28;5109077;28;20393;-55
2023/06/26 05:08:49;;;;;;;5.55;3.33;;;;;;;17.36;96.67;100118.06;5108924;28;20524;-54
2023/06/26 05:11:14;;;;;;;4.80;3.40;;;;;;;17.55;92.69;100113.56;5108962;28;20044;-53
2023/06/26 05:13:40;;;;;;;5.43;3.50;;;;;;;17.78;89.51;100110.22;5108935;28;20040;-54
2023/06/26 05:16:05;;;;;;;4.30;3.30;;;;;;;17.86;90.06;100109.09;5108820;28;20104;-54
2023/06/26 05:18:31;;;;;;;5.25;3.55;;;;;;;17.98;89.43;100110.00;5108610;28;20063;-56
2023/06/26 05:20:56;;;;;;;5.53;3.83;;;;;;;18.13;88.38;100123.13;5107465;28;20571;-54
2023/06/26 05:23:25;;;;;;;5.90;3.92;;;;;;;18.32;87.66;100118.50;5108710;28;20676;-57
2023/06/26 05:25:51;;;;;;;5.90;3.90;;;;;;;18.50;86.47;100115.78;5108663;28;20032;-55
2023/06/26 05:28:17;;;;;;;6.05;4.03;;;;;;;18.59;86.33;100114.44;5108253;28;20396;-53
2023/06/26 05:30:42;;;;;;;5.60;3.90;;;;;;;18.73;86.33;100122.38;5108505;28;20123;-55
2023/06/26 05:33:11;;;;;;;7.25;4.80;;;;;;;18.92;85.35;100115.88;5099392;28;20463;-55
2023/06/26 05:35:37;;;;;;;5.53;3.80;;;;;;;18.97;85.09;100119.53;5094845;28;20113;-54
2023/06/26 05:38:02;;;;;;;5.30;3.95;;;;;;;19.09;84.99;100127.63;5094944;28;20480;-55
2023/06/26 05:40:28;;;;;;;4.95;3.63;;;;;;;19.30;83.68;100117.31;5094677;28;20072;-54
2023/06/26 05:42:54;;;;;;;4.68;3.80;;;;;;;19.39;82.96;100115.94;5094773;28;20038;-56
2023/06/26 05:45:19;;;;;;;6.05;3.90;;;;;;;19.48;82.06;100117.22;5094750;28;20519;-55
2023/06/26 05:47:46;;;;;;;4.63;3.45;;;;;;;19.68;81.23;100130.41;5094695;28;20036;-57
2023/06/26 05:50:12;;;;;;;4.60;3.53;;;;;;;19.74;80.59;100124.88;5094251;28;20040;-57
2023/06/26 05:52:38;;;;;;;4.25;3.25;;;;;;;19.78;80.61;100125.25;5094601;28;20400;-58
2023/06/26 05:55:05;;;;;;;5.43;3.13;;;;;;;19.86;79.79;100121.34;5094568;28;20035;-56
2023/06/26 05:57:31;;;;;;;5.10;3.47;;;;;;;20.16;79.46;100127.41;5093263;28;20035;-54
2023/06/26 05:59:57;;;;;;;3.83;3.42;;;;;;;20.30;78.46;100134.19;5094201;28;20404;-56
2023/06/26 06:02:22;;;;;;;4.43;3.50;;;;;;;20.38;77.90;100130.28;5094440;28;20123;-58
2023/06/26 06:04:48;;;;;;;4.53;3.33;;;;;;;20.61;76.23;100126.72;5094420;28;20036;-56
2023/06/26 06:07:13;;;;;;;5.00;3.42;;;;;;;20.68;75.21;100123.84;5094320;28;20036;-57
2023/06/26 06:09:39;;;;;;;4.97;3.35;;;;;;;20.93;71.74;100134.28;5094017;28;20032;-55
2023/06/26 06:12:06;;;;;;;4.50;3.17;;;;;;;20.96;72.68;100137.34;5093909;28;20050;-56
2023/06/26 06:14:32;;;;;;;3.80;2.90;;;;;;;21.17;69.66;100132.28;5094317;28;20028;-52
2023/06/26 06:16:58;;;;;;;3.80;2.58;;;;;;;21.16;70.18;100136.06;5094103;28;20326;-54
2023/06/26 06:19:23;;;;;;;4.13;3.45;;;;;;;21.20;71.00;100140.75;5093748;28;20052;-57
2023/06/26 06:21:48;;;;;;;3.90;3.38;;;;;;;21.47;68.17;100142.84;5093974;28;20097;-58
2023/06/26 06:24:14;;;;;;;4.50;3.30;;;;;;;21.56;67.34;100142.16;5094118;28;20044;-56
2023/06/26 06:26:39;;;;;;;4.45;3.20;;;;;;;21.61;68.63;100144.94;5093776;28;20051;-57
2023/06/26 06:29:05;;;;;;;4.97;3.50;;;;;;;21.79;67.26;100143.03;5093836;28;20040;-56
2023/06/26 06:31:31;;;;;;;4.45;3.40;;;;;;;21.83;67.50;100136.84;5093872;28;20028;-58
2023/06/26 06:33:56;;;;;;;4.70;3.35;;;;;;;22.01;65.34;100138.47;5093862;28;20400;-56
2023/06/26 06:36:22;;;;;;;4.35;3.15;;;;;;;22.13;65.46;100133.78;5093696;28;20071;-54
2023/06/26 06:38:47;;;;;;;4.63;3.35;;;;;;;22.39;63.05;100144.94;5093473;28;20110;-58
2023/06/26 06:41:13;;;;;;;4.95;3.20;;;;;;;22.48;62.38;100137.97;5092452;28;20036;-53
2023/06/26 06:43:39;;;;;;;4.13;3.30;;;;;;;22.58;63.24;100138.09;5093159;28;20130;-55
2023/06/26 06:46:04;;;;;;;4.20;3.00;;;;;;;22.80;61.49;100140.75;5093391;28;20046;-54
2023/06/26 06:48:31;;;;;;;3.85;2.92;;;;;;;23.10;59.29;100137.56;5093219;28;20044;-58
2023/06/26 06:50:56;;;;;;;3.97;3.20;;;;;;;23.11;59.64;100141.91;5093615;28;20078;-57
2023/06/26 06:53:22;;;;;;;5.32;3.35;;;;;;;23.19;59.57;100152.28;5093494;28;20553;-54
2023/06/26 06:55:48;;;;;;;4.07;3.25;;;;;;;23.32;59.24;100142.91;5093262;28;20055;-57
2023/06/26 06:58:16;;;;;;;4.25;3.05;;;;;;;23.59;58.25;100142.81;5093172;28;20485;-56
2023/06/26 07:00:42;;;;;;;5.55;3.25;;;;;;;23.75;57.60;100141.06;5093434;28;20416;-57
2023/06/26 07:03:07;;;;;;;5.50;3.45;;;;;;;23.78;57.67;100135.91;5093222;28;20082;-58
2023/06/26 07:05:33;;;;;;;5.35;3.63;;;;;;;23.96;56.95;100137.38;5093168;28;20493;-57
2023/06/26 07:07:58;;;;;;;4.70;3.63;;;;;;;23.98;57.74;100135.19;5093184;28;20081;-57
2023/06/26 07:10:24;;;;;;;5.75;3.50;;;;;;;24.18;56.55;100134.47;5092601;28;20119;-57
2023/06/26 07:12:49;;;;;;;5.15;3.28;;;;;;;24.25;55.53;100134.22;5093054;28;20043;-57
2023/06/26 07:15:14;;;;;;;5.43;3.53;;;;;;;24.42;55.57;100132.16;5092973;28;20447;-60
2023/06/26 07:17:40;;;;;;;3.97;3.40;;;;;;;24.66;54.23;100137.94;5092986;28;20127;-57
2023/06/26 07:20:07;;;;;;;4.40;2.88;;;;;;;24.77;54.36;100136.03;5092601;28;20050;-56
2023/06/26 07:22:33;;;;;;;4.32;3.50;;;;;;;24.92;54.21;100130.63;5092868;28;20058;-58
2023/06/26 07:24:59;;;;;;;4.50;3.47;;;;;;;25.02;53.57;100127.91;5088119;28;20420;-58
2023/06/26 07:27:25;;;;;;;4.80;3.05;;;;;;;25.14;53.83;100125.78;5082576;28;20131;-59
2023/06/26 07:29:50;;;;;;;5.13;2.58;;;;;;;25.52;51.21;100123.56;5080683;28;20497;-57
2023/06/26 07:32:16;;;;;;;4.07;2.63;;;;;;;25.71;51.25;100123.81;5083453;28;20032;-57
2023/06/26 07:34:41;;;;;;;4.22;3.00;;;;;;;25.82;50.74;100120.00;5082316;28;20062;-53
2023/06/26 07:37:07;;;;;;;4.18;2.88;;;;;;;25.84;50.88;100125.19;5082481;28;20035;-58
2023/06/26 07:39:33;;;;;;;4.93;3.03;;;;;;;26.15;48.24;100128.63;5080493;28;20036;-58
2023/06/26 07:41:59;;;;;;;4.35;3.00;;;;;;;26.24;47.90;100122.28;5082758;28;20054;-57
2023/06/26 07:44:25;;;;;;;3.30;2.63;;;;;;;26.41;46.37;100121.16;5080282;28;20051;-55
2023/06/26 07:46:50;;;;;;;4.03;2.97;;;;;;;26.54;46.81;100130.63;5081925;28;20033;-54
2023/06/26 07:49:16;;;;;;;4.07;2.95;;;;;;;26.56;46.47;100134.72;5081069;28;20032;-54
2023/06/26 07:51:41;;;;;;;3.60;3.00;;;;;;;26.47;47.31;100131.78;5080914;28;20111;-57
2023/06/26 07:54:07;;;;;;;3.25;2.42;;;;;;;26.49;48.02;100132.31;5080208;28;20032;-58
2023/06/26 07:57:04;;;;;;;4.18;3.30;;;;;;;26.60;47.22;100132.25;5081218;28;20035;-57
2023/06/26 07:59:30;;;;;;;4.25;2.67;;;;;;;26.83;46.52;100130.75;5080740;28;20492;-56
2023/06/26 08:01:57;;;;;;;5.38;3.65;;;;;;;26.85;46.66;100137.53;5081556;28;20035;-57
2023/06/26 08:04:25;;;;;;;3.75;2.83;;;;;;;27.03;45.73;100144.25;5081139;28;20040;-57
2023/06/26 08:06:52;;;;;;;4.85;3.10;;;;;;;27.07;46.37;100137.16;5081236;28;20104;-54
2023/06/26 08:09:19;;;;;;;3.85;3.00;;;;;;;27.20;45.35;100138.44;5080627;28;20032;-56
2023/06/26 08:11:45;;;;;;;3.83;2.90;;;;;;;27.41;45.92;100139.06;5086038;28;20051;-55
2023/06/26 08:14:14;;;;;;;5.82;3.22;;;;;;;27.44;46.24;100150.22;5092235;28;20036;-57
2023/06/26 08:16:40;;;;;;;4.68;3.38;;;;;;;27.47;46.09;100152.41;5092030;28;20028;-57
2023/06/26 08:19:05;;;;;;;3.70;2.90;;;;;;;27.39;46.11;100153.03;5090575;28;20408;-58
2023/06/26 08:21:31;;;;;;;3.45;2.80;;;;;;;27.47;46.39;100154.34;5071648;28;20041;-54
2023/06/26 08:23:56;;;;;;;5.18;3.30;;;;;;;27.35;47.51;100168.38;5072013;28;20024;-55
2023/06/26 08:26:22;;;;;;;4.53;3.10;;;;;;;27.35;47.23;100167.56;5071809;28;20123;-57
2023/06/26 08:28:47;;;;;;;4.03;3.25;;;;;;;27.38;47.08;100166.97;5071549;28;20102;-54
2023/06/26 08:31:12;;;;;;;4.75;3.50;;;;;;;27.34;47.93;100168.66;5071779;28;20044;-55
2023/06/26 08:33:38;;;;;;;4.13;3.28;;;;;;;27.35;48.09;100173.03;5071650;28;20127;-57
2023/06/26 08:36:03;;;;;;;5.28;3.60;;;;;;;27.41;48.29;100171.88;5071702;28;20047;-55
2023/06/26 08:38:29;;;;;;;5.07;3.60;;;;;;;27.33;49.17;100169.78;5071405;28;20055;-53
2023/06/26 08:40:54;;;;;;;4.60;3.20;;;;;;;27.46;49.64;100172.66;5071731;28;20120;-52
2023/06/26 08:43:21;;;;;;;5.20;3.80;;;;;;;27.52;48.65;100179.72;5071655;28;20502;-61
2023/06/26 08:45:51;;;;;;;4.68;3.70;;;;;;;27.50;48.51;100183.81;5071457;28;20041;-59
2023/06/26 08:48:17;;;;;;;5.13;3.80;;;;;;;27.47;49.34;100184.41;5071278;28;20065;-60
2023/06/26 08:50:43;;;;;;;5.10;3.80;;;;;;;27.64;48.36;100175.75;5071585;28;20119;-60
2023/06/26 08:53:28;;;;;;;5.00;3.50;;;;;;;27.64;47.89;100190.25;5071596;28;20037;-59
2023/06/26 08:55:57;;;;;;;4.75;3.65;;;;;;;27.66;49.01;100179.88;5071429;28;20157;-61
2023/06/26 08:58:22;;;;;;;4.65;3.30;;;;;;;27.80;47.75;100180.84;5071226;28;20038;-60
2023/06/26 09:00:49;;;;;;;4.65;3.97;;;;;;;27.87;48.33;100187.91;5071309;28;20115;-60
2023/06/26 09:03:15;;;;;;;4.07;3.40;;;;;;;27.93;48.19;100178.53;5071366;28;20094;-58
2023/06/26 09:05:40;;;;;;;5.05;3.83;;;;;;;28.10;46.75;100189.81;5071274;28;20032;-57
2023/06/26 09:08:07;;;;;;;4.00;3.30;;;;;;;28.35;45.95;100191.47;5073030;28;20040;-61
2023/06/26 09:10:32;;;;;;;4.20;3.20;;;;;;;28.47;46.25;100193.81;5074856;28;20040;-61
2023/06/26 09:12:58;;;;;;;5.45;3.30;;;;;;;28.42;46.73;100189.19;5075178;28;20033;-58
2023/06/26 09:15:24;;;;;;;3.70;3.10;;;;;;;28.57;46.90;100199.19;5074883;28;20036;-59
2023/06/26 09:17:54;;;;;;;4.53;3.77;;;;;;;28.75;46.32;100195.63;5075123;28;20115;-59
2023/06/26 09:20:19;;;;;;;4.63;3.47;;;;;;;28.79;45.95;100199.41;5074461;28;20048;-59
2023/06/26 09:22:47;;;;;;;4.57;3.75;;;;;;;28.59;47.00;100203.25;5074853;28;20032;-59
2023/06/26 09:25:13;;;;;;;4.97;3.42;;;;;;;28.48;46.89;100193.50;5074830;28;20413;-60
2023/06/26 09:27:39;;;;;;;3.85;3.38;;;;;;;28.55;46.19;100206.84;5074659;28;20044;-63
2023/06/26 09:30:08;;;;;;;4.22;3.33;;;;;;;28.52;46.93;100201.97;5074487;28;20060;-62
2023/06/26 09:32:37;;;;;;;3.40;3.03;;;;;;;28.42;46.60;100213.03;5074744;28;20595;-60
2023/06/26 09:35:03;;;;;;;4.68;3.45;;;;;;;28.32;47.35;100208.50;5074518;28;20043;-60
2023/06/26 09:37:29;;;;;;;4.60;3.45;;;;;;;28.22;47.34;100223.09;5074539;28;20142;-61
2023/06/26 09:39:54;;;;;;;4.45;3.33;;;;;;;28.16;47.63;100226.19;5074261;28;20056;-61
2023/06/26 09:42:20;;;;;;;3.95;3.03;;;;;;;28.34;48.07;100223.53;5074453;28;20392;-61
2023/06/26 09:44:47;;;;;;;4.25;3.70;;;;;;;28.07;47.25;100236.97;5074533;28;20491;-61
2023/06/26 09:47:15;;;;;;;5.65;3.65;;;;;;;28.02;47.45;100221.38;5074416;28;20439;-61
2023/06/26 09:49:42;;;;;;;4.90;3.22;;;;;;;28.21;49.45;100228.88;5074172;28;20119;-61
2023/06/26 09:52:08;;;;;;;4.38;3.35;;;;;;;28.49;48.69;100219.78;5074311;28;20062;-61
2023/06/26 09:54:35;;;;;;;6.30;3.92;;;;;;;28.73;46.87;100221.69;5073073;28;20033;-60
2023/06/26 09:57:11;;;;;;;4.28;3.58;;;;;;;28.90;46.55;100228.31;5073020;28;20078;-61
2023/06/26 09:59:36;;;;;;;4.60;3.90;;;;;;;28.86;46.62;100218.22;5073955;28;20048;-59
2023/06/26 10:02:02;;;;;;;6.28;3.90;;;;;;;28.66;47.48;100211.09;5074115;28;20111;-61
2023/06/26 10:04:28;;;;;;;4.30;3.33;;;;;;;29.12;47.47;100210.47;5074060;28;20197;-61
2023/06/26 10:06:58;;;;;;;5.63;3.97;;;;;;;29.39;46.67;100210.59;5073971;28;20032;-60
2023/06/26 10:09:24;;;;;;;4.75;3.45;;;;;;;29.71;45.01;100209.81;5073646;28;20037;-61
2023/06/26 10:12:18;;;;;;;4.15;3.40;;;;;;;29.80;45.39;100198.97;5073860;28;20035;-61
2023/06/26 10:14:43;;;;;;;3.92;3.30;;;;;;;29.87;44.89;100204.06;5073958;28;20033;-61
2023/06/26 10:17:11;;;;;;;4.78;3.65;;;;;;;30.31;45.69;100214.47;5073960;28;20059;-61
2023/06/26 10:19:39;;;;;;;4.72;3.60;;;;;;;30.14;44.72;100200.56;5073505;28;20044;-61
2023/06/26 10:22:05;;;;;;;4.82;3.78;;;;;;;30.19;43.60;100205.91;5073845;28;20037;-60
2023/06/26 10:24:34;;;;;;;5.35;3.90;;;;;;;30.11;43.52;100206.63;5073727;28;20052;-62
2023/06/26 10:27:19;;;;;;;4.93;3.95;;;;;;;30.27;44.26;100203.31;5073650;28;20111;-60
2023/06/26 10:29:49;;;;;;;4.70;3.70;;;;;;;30.48;45.05;100197.38;5073397;28;20512;-59
2023/06/26 10:32:16;;;;;;;4.55;3.38;;;;;;;30.71;43.32;100203.78;5073499;28;20040;-61
2023/06/26 10:34:42;;;;;;;3.60;3.20;;;;;;;30.82;42.87;100207.94;5073550;28;20037;-60
2023/06/26 10:37:09;;;;;;;5.35;4.05;;;;;;;31.14;42.24;100215.19;5073474;28;20032;-61
2023/06/26 10:39:49;;;;;;;4.82;3.38;;;;;;;31.09;41.82;100207.03;5073378;28;20503;-59
2023/06/26 10:42:18;;;;;;;5.55;3.47;;;;;;;31.41;41.64;100208.78;5073516;28;20054;-63
2023/06/26 10:44:46;;;;;;;5.28;3.40;;;;;;;31.48;40.13;100206.41;5073333;28;20513;-62
2023/06/26 10:47:36;;;;;;;4.22;3.40;;;;;;;31.81;40.74;100212.44;5073350;28;20058;-61
2023/06/26 10:50:20;;;;;;;4.30;3.33;;;;;;;32.43;39.71;100211.63;5073062;28;20043;-61
2023/06/26 10:52:45;;;;;;;3.70;3.22;;;;;;;32.52;39.65;100220.72;5088413;28;20445;-61
2023/06/26 10:55:13;;;;;;;4.35;3.42;;;;;;;31.96;40.65;100224.22;5093465;28;20118;-62
2023/06/26 10:57:38;;;;;;;6.45;3.60;;;;;;;32.09;40.60;100218.59;5093426;28;20397;-62
2023/06/26 11:00:14;;;;;;;4.53;3.67;;;;;;;32.23;40.39;100217.69;5093080;28;20040;-61
2023/06/26 11:02:52;;;;;;;5.43;3.53;;;;;;;32.19;39.54;100216.69;5093313;28;20118;-60
2023/06/26 11:05:28;;;;;;;5.38;3.53;;;;;;;32.47;39.66;100229.13;5093099;28;20042;-61
2023/06/26 11:08:07;;;;;;;4.70;3.23;;;;;;;32.12;39.47;100223.47;5093154;28;20059;-61
2023/06/26 11:10:49;;;;;;;4.85;3.38;;;;;;;31.55;39.74;100226.03;5092829;28;20226;-61
2023/06/26 11:13:17;;;;;;;5.25;3.53;;;;;;;30.71;41.49;100221.13;5093093;28;20032;-62
2023/06/26 11:15:43;;;;;;;6.43;3.97;;;;;;;30.41;43.06;100230.78;5092998;28;20131;-62
2023/06/26 11:18:09;;;;;;;5.22;3.30;;;;;;;30.30;43.15;100234.03;5088992;28;20031;-61
2023/06/26 11:20:34;;;;;;;5.53;3.85;;;;;;;30.41;41.76;100225.28;5082220;28;20580;-61
2023/06/26 11:23:00;;;;;;;4.32;3.30;;;;;;;30.79;41.80;100220.38;5064239;28;20032;-62
2023/06/26 11:25:26;;;;;;;5.85;3.40;;;;;;;31.03;41.62;100227.53;5083464;28;20454;-61
2023/06/26 11:27:53;;;;;;;5.37;3.63;;;;;;;31.47;40.92;100223.22;5064270;28;20066;-61
2023/06/26 11:30:26;;;;;;;5.00;3.63;;;;;;;31.77;39.34;100221.66;5081382;28;20024;-62
2023/06/26 11:32:51;;;;;;;6.75;4.00;;;;;;;32.06;38.56;100223.91;5081437;28;20044;-62
2023/06/26 11:35:29;;;;;;;4.70;3.35;;;;;;;31.72;38.74;100224.53;5082252;28;20032;-62
2023/06/26 11:37:56;;;;;;;4.15;3.42;;;;;;;32.00;38.39;100226.00;5081462;28;20054;-61
2023/06/26 11:40:26;;;;;;;4.53;3.22;;;;;;;31.99;37.94;100220.81;5066498;28;20039;-60
2023/06/26 11:42:55;;;;;;;3.63;2.70;;;;;;;31.39;38.85;100219.28;5081453;28;20025;-60
2023/06/26 11:45:20;;;;;;;4.38;3.05;;;;;;;31.52;38.90;100215.66;5081514;28;20039;-62
2023/06/26 11:47:46;;;;;;;3.53;2.60;;;;;;;32.09;37.42;100229.63;5080344;28;20389;-61
2023/06/26 11:50:18;;;;;;;4.47;3.17;;;;;;;32.50;36.61;100222.19;5083700;28;20404;-61
2023/06/26 11:52:44;;;;;;;3.65;2.97;;;;;;;32.95;36.13;100220.00;5092034;28;20040;-62
2023/06/26 11:55:13;;;;;;;3.70;2.60;;;;;;;32.81;35.15;100211.06;5064748;28;20107;-61
2023/06/26 11:57:38;;;;;;;4.25;3.10;;;;;;;33.09;35.54;100220.66;5066267;28;20049;-62
2023/06/26 12:00:11;;;;;;;3.83;3.20;;;;;;;33.31;35.05;100218.84;5080590;28;20036;-61
2023/06/26 12:02:38;;;;;;;4.50;2.80;;;;;;;33.64;34.54;100236.53;5081550;28;20039;-62
2023/06/26 12:05:04;;;;;;;;;;;;;;;33.92;34.24;100233.44;5083260;28;20380;-60
2023/06/26 12:07:31;;;;;;;3.90;2.78;;;;;;;34.13;34.10;100233.53;5081190;28;20011;-62
2023/06/26 12:09:58;;;;;;;3.67;2.92;;;;;;;33.99;32.47;100245.59;5081309;28;20058;-60
2023/06/26 12:12:24;;;;;;;5.53;3.10;;;;;;;34.01;31.67;100234.22;5082507;28;20036;-60
2023/06/26 12:14:51;;;;;;;4.28;2.70;;;;;;;34.18;32.58;100236.91;5081334;28;20045;-61
2023/06/26 12:17:17;;;;;;;4.38;2.65;;;;;;;34.68;31.41;100236.19;5080186;28;20054;-61
2023/06/26 12:19:47;;;;;;;4.40;2.60;;;;;;;34.78;30.54;100237.75;5082633;28;20024;-61
2023/06/26 12:22:13;;;;;;;4.15;2.95;;;;;;;34.96;30.24;100239.28;5081488;28;20028;-61
2023/06/26 12:24:40;;;;;;;4.28;2.92;;;;;;;34.98;30.04;100236.19;5079842;28;20106;-61
2023/06/26 12:27:17;;;;;;;3.92;2.47;;;;;;;34.85;29.93;100243.56;5082701;28;20058;-61
2023/06/26 12:29:51;;;;;;;4.10;2.70;;;;;;;35.00;30.00;100239.41;5082429;28;20051;-61
2023/06/26 12:32:17;;;;;;;3.53;1.90;;;;;;;34.50;29.47;100251.28;5081982;28;20032;-61
2023/06/26 12:34:48;;;;;;;4.17;2.40;;;;;;;34.26;29.19;100252.66;5080526;28;20504;-61
2023/06/26 12:37:14;;;;;;;6.32;2.10;;;;;;;34.07;29.57;100240.38;5067470;28;20375;-61
2023/06/26 12:39:45;;;;;;;5.77;2.40;;;;;;;34.20;29.22;100248.44;5071430;28;20024;-61
2023/06/26 12:42:14;;;;;;;3.95;2.20;;;;;;;34.40;29.96;100240.56;5072027;28;20283;-61
2023/06/26 12:44:39;;;;;;;2.28;1.95;;;;;;;34.46;29.67;100237.28;5080992;28;20063;-61
2023/06/26 12:47:06;;;;;;;3.90;2.33;;;;;;;34.57;30.05;100247.97;5070720;28;20070;-61
2023/06/26 12:49:36;;;;;;;3.92;2.25;;;;;;;34.29;30.75;100237.34;5084467;28;20029;-62
2023/06/26 12:52:04;;;;;;;3.70;2.10;;;;;;;34.13;29.06;100237.09;5084522;28;20055;-60
2023/06/26 12:54:30;;;;;;;6.32;2.50;;;;;;;34.07;30.21;100223.78;5086377;28;20546;-61
2023/06/26 12:56:55;;;;;;;2.93;1.90;;;;;;;34.39;29.99;100231.44;5085250;28;20028;-61
2023/06/26 12:59:21;;;;;;;3.27;2.10;;;;;;;34.59;30.01;100229.09;5065684;28;20037;-62
2023/06/26 13:01:47;;;;;;;4.55;2.30;;;;;;;34.15;30.43;100225.69;5066358;28;20528;-61
2023/06/26 13:04:12;;;;;;;4.90;2.37;;;;;;;34.54;29.48;100217.06;5084301;28;20166;-61
2023/06/26 13:06:38;;;;;;;2.63;2.00;;;;;;;33.86;30.99;100235.53;5084121;28;20039;-61
2023/06/26 13:09:04;;;;;;;3.70;2.43;;;;;;;33.33;30.35;100222.13;5074928;28;20036;-62
2023/06/26 13:11:30;;;;;;;4.70;2.70;;;;;;;33.18;31.17;100229.75;5075237;28;20539;-62
2023/06/26 13:13:56;;;;;;;4.55;2.35;;;;;;;33.08;31.95;100234.78;5075126;28;20135;-60
2023/06/26 13:16:21;;;;;;;6.90;3.13;;;;;;;32.95;31.04;100228.28;5082189;28;20080;-60
2023/06/26 13:18:47;;;;;;;5.40;3.30;;;;;;;32.67;30.98;100228.53;5083652;28;20035;-61
2023/06/26 13:21:13;;;;;;;6.53;2.47;;;;;;;32.17;31.73;100221.72;5091939;28;20067;-62
2023/06/26 13:23:38;;;;;;;3.67;2.40;;;;;;;31.87;32.96;100226.91;5095183;28;20028;-62
2023/06/26 13:26:05;;;;;;;4.17;2.20;;;;;;;31.46;32.85;100214.16;5077577;28;20044;-62
2023/06/26 13:28:30;;;;;;;3.37;2.10;;;;;;;31.41;33.30;100222.53;5074684;28;20037;-62
2023/06/26 13:30:55;;;;;;;4.27;2.67;;;;;;;31.16;33.26;100212.13;5074732;28;20348;-62
2023/06/26 13:33:21;;;;;;;4.80;2.50;;;;;;;30.84;33.69;100210.38;5080398;28;20043;-62
2023/06/26 13:35:46;;;;;;;3.80;2.33;;;;;;;31.05;35.01;100222.56;5084897;28;20048;-62
2023/06/26 13:38:11;;;;;;;3.92;2.38;;;;;;;30.90;34.68;100220.94;5084522;28;20040;-62
2023/06/26 13:40:37;;;;;;;5.87;3.30;;;;;;;30.73;33.41;100212.56;5083196;28;20123;-61
2023/06/26 13:43:03;;;;;;;5.32;3.38;;;;;;;30.75;33.69;100215.78;5085330;28;20039;-62
2023/06/26 13:45:29;;;;;;;7.60;3.38;;;;;;;30.91;35.05;100227.25;5083869;28;20041;-62
2023/06/26 13:47:54;;;;;;;4.80;3.08;;;;;;;30.56;34.37;100226.06;5094925;28;20098;-62
2023/06/26 13:50:20;;;;;;;6.03;3.35;;;;;;;30.39;34.35;100212.97;5094313;28;20126;-61
2023/06/26 13:52:45;;;;;;;4.47;3.00;;;;;;;30.59;34.46;100206.25;5094527;28;20044;-62
2023/06/26 13:55:11;;;;;;;5.95;3.83;;;;;;;30.68;34.78;100218.16;5094249;28;20042;-61
2023/06/26 13:57:41;;;;;;;5.97;3.67;;;;;;;30.73;35.10;100218.84;5094710;28;20042;-61
2023/06/26 14:00:12;;;;;;;7.43;3.75;;;;;;;30.46;33.92;100216.94;5092935;28;20040;-61
2023/06/26 14:02:41;;;;;;;7.38;3.92;;;;;;;30.40;34.97;100223.66;5093114;28;20080;-61
2023/06/26 14:05:07;;;;;;;11.80;4.30;;;;;;;30.47;35.52;100213.06;5093362;28;20036;-61
2023/06/26 14:07:32;;;;;;;5.22;3.47;;;;;;;30.31;35.93;100230.16;5094405;28;20109;-61
2023/06/26 14:09:58;;;;;;;7.78;4.45;;;;;;;30.20;35.82;100226.81;5094141;28;20489;-61
2023/06/26 14:12:25;;;;;;;7.22;4.15;;;;;;;30.16;36.86;100221.09;5094339;28;20107;-60
2023/06/26 14:14:50;;;;;;;6.70;3.90;;;;;;;30.37;36.30;100232.50;5094261;28;20485;-61
2023/06/26 14:17:15;;;;;;;4.88;3.53;;;;;;;30.55;35.94;100225.25;5094102;28;20036;-62
2023/06/26 14:19:41;;;;;;;7.22;3.97;;;;;;;30.57;36.15;100227.69;5093820;28;20170;-60
2023/06/26 14:22:06;;;;;;;5.95;3.35;;;;;;;30.58;36.19;100227.38;5094068;28;20417;-61
2023/06/26 14:24:31;;;;;;;6.78;3.88;;;;;;;30.44;36.18;100241.13;5094076;28;20043;-62
2023/06/26 14:26:57;;;;;;;11.55;4.25;;;;;;;30.19;36.51;100239.72;5094028;28;20032;-62
2023/06/26 14:29:23;;;;;;;6.68;3.42;;;;;;;30.16;36.77;100236.75;5093672;28;20063;-62
2023/06/26 14:31:48;;;;;;;6.10;3.83;;;;;;;30.11;36.16;100236.84;5093909;28;20422;-62
2023/06/26 14:34:14;;;;;;;5.30;3.45;;;;;;;29.99;36.08;100243.63;5093840;28;20090;-62
2023/06/26 14:36:39;;;;;;;7.43;3.95;;;;;;;29.99;35.24;100246.38;5093738;28;20118;-60
2023/06/26 14:39:05;;;;;;;4.65;3.55;;;;;;;30.07;34.96;100235.81;5093531;28;20112;-62
2023/06/26 14:41:30;;;;;;;7.85;3.95;;;;;;;29.96;35.87;100248.91;5093748;28;20024;-60
2023/06/26 14:43:55;;;;;;;6.55;3.72;;;;;;;29.87;35.54;100247.97;5093675;28;20404;-62
2023/06/26 14:46:21;;;;;;;4.70;3.22;;;;;;;29.82;35.23;100246.13;5093551;28;20040;-61
2023/06/26 14:48:46;;;;;;;7.40;4.50;;;;;;;29.54;35.81;100252.63;5093292;28;20032;-62
2023/06/26 14:51:11;;;;;;;5.68;3.92;;;;;;;29.53;34.77;100242.78;5093421;28;20043;-62
2023/06/26 14:53:37;;;;;;;5.15;3.38;;;;;;;29.38;34.61;100257.53;5093516;28;20039;-62
2023/06/26 14:56:02;;;;;;;5.15;3.35;;;;;;;29.43;34.95;100246.47;5093406;28;20508;-62
2023/06/26 14:58:28;;;;;;;6.70;3.55;;;;;;;29.51;34.86;100239.50;5093079;28;20055;-62
2023/06/26 15:00:53;;;;;;;5.43;3.35;;;;;;;29.56;35.06;100244.94;5093350;28;20394;-62
2023/06/26 15:03:18;;;;;;;4.05;2.75;;;;;;;29.58;34.20;100254.50;5093227;28;20424;-61
2023/06/26 15:05:44;;;;;;;6.57;3.17;;;;;;;29.61;35.04;100253.91;5092429;28;20036;-62
2023/06/26 15:08:11;;;;;;;4.93;2.50;;;;;;;29.70;33.86;100246.59;5093205;28;20390;-63
2023/06/26 15:10:36;;;;;;;3.50;2.20;;;;;;;29.51;33.14;100247.72;5092826;28;20040;-62
2023/06/26 15:13:01;;;;;;;3.78;2.25;;;;;;;29.59;33.25;100249.81;5093168;28;20051;-62
2023/06/26 15:15:27;;;;;;;4.18;1.63;;;;;;;29.54;32.33;100250.72;5091688;28;20039;-62
2023/06/26 15:17:52;;;;;;;3.88;1.92;;;;;;;29.53;31.83;100245.53;5092993;28;20043;-62
2023/06/26 15:20:17;;;;;;;4.20;1.90;;;;;;;29.52;32.12;100244.72;5092613;28;20051;-61
2023/06/26 15:22:43;;;;;;;3.47;1.80;;;;;;;29.38;31.48;100243.81;5093173;28;20123;-63
2023/06/26 15:25:08;;;;;;;5.18;2.38;;;;;;;29.28;32.09;100257.66;5091577;28;20039;-62
2023/06/26 15:27:34;;;;;;;3.42;1.42;;;;;;;29.19;30.88;100243.81;5092927;28;20048;-61
2023/06/26 15:29:59;;;;;;;1.48;1.20;;;;;;;29.24;30.14;100251.97;5091300;28;20043;-60
2023/06/26 15:32:25;;;;;;;3.15;1.60;;;;;;;29.11;29.11;100247.25;5092722;28;20548;-62
2023/06/26 15:34:50;;;;;;;5.47;1.95;;;;;;;29.03;28.46;100251.47;5092725;28;20128;-62
2023/06/26 15:37:15;;;;;;;3.35;1.55;;;;;;;29.07;28.58;100254.41;5092716;28;20032;-62
2023/06/26 15:39:42;;;;;;;2.95;1.50;;;;;;;29.01;28.50;100258.34;5092367;28;20060;-62
2023/06/26 15:42:07;;;;;;;2.90;1.40;;;;;;;29.05;29.16;100259.38;5092670;28;20039;-62
2023/06/26 15:44:33;;;;;;;5.45;1.73;;;;;;;29.10;29.16;100259.31;5092539;28;20044;-62